.
WxDataArchive / Data Records for 2007-02-08
2007-02-07 February 2007 2007-02-09

Data Records for Thursday, 08 February 2007

Time	Temp	Chill	HIndex	Humid	Dewpt	 Wind 	HiWind	WindDir	Rain 	Barom 
-----	----	-----	------	-----	-----	------	------	-------	-----	----- 
00:00	1.5	1.5	1.5	64	-7.8	3	11	270	0.00	30.213 
00:05	1.5	1.5	1.5	64	-7.8	2	6	270	0.00	30.212 
00:10	1.5	1.5	1.5	64	-7.8	1	6	270	0.00	30.213 
00:15	1.5	1.5	1.5	64	-7.8	2	9	270	0.00	30.213 
00:20	1.5	1.5	1.5	64	-7.8	3	9	270	0.00	30.211 
00:25	1.3	1.3	1.3	64	-8.0	2	8	270	0.00	30.215 
00:30	1.3	1.3	1.3	64	-8.0	3	10	270	0.00	30.214 
00:35	1.3	1.3	1.3	64	-8.0	1	10	248	0.00	30.215 
00:40	1.3	1.3	1.3	64	-8.0	2	10	270	0.00	30.216 
00:45	1.3	1.3	1.3	64	-8.0	2	7	270	0.00	30.214 
00:50	1.3	1.3	1.3	64	-8.0	2	9	270	0.00	30.207 
00:55	1.3	1.3	1.3	64	-8.0	2	6	248	0.00	30.206 
01:00	1.3	1.3	1.3	64	-8.0	2	7	270	0.00	30.207 
01:05	1.1	1.1	1.1	64	-8.2	2	7	270	0.00	30.205 
01:10	1.1	1.1	1.1	64	-8.2	1	5	248	0.00	30.204 
01:15	0.9	0.9	0.9	64	-8.4	3	7	270	0.00	30.203 
01:20	0.9	0.9	0.9	64	-8.4	2	9	248	0.00	30.202 
01:25	0.9	0.9	0.9	64	-8.4	2	7	270	0.00	30.202 
01:30	0.7	0.7	0.7	64	-8.6	2	9	270	0.00	30.202 
01:35	0.7	0.7	0.7	64	-8.6	2	8	270	0.00	30.201 
01:40	0.7	0.7	0.7	64	-8.6	3	9	270	0.00	30.201 
01:45	0.7	0.7	0.7	64	-8.6	2	7	270	0.00	30.201 
01:50	0.7	0.7	0.7	64	-8.6	1	6	270	0.00	30.202 
01:55	0.7	0.7	0.7	64	-8.6	2	12	270	0.00	30.202 
02:00	0.5	0.5	0.5	64	-8.8	2	7	270	0.00	30.202 
02:05	0.5	0.5	0.5	65	-8.5	2	5	270	0.00	30.202 
02:10	0.3	0.3	0.3	64	-9.0	1	6	270	0.00	30.203 
02:15	0.3	0.3	0.3	64	-9.0	1	4	248	0.00	30.199 
02:20	0.3	0.3	0.3	64	-9.0	2	6	270	0.00	30.197 
02:25	0.3	0.3	0.3	64	-9.0	2	7	270	0.00	30.201 
02:30	0.1	0.1	0.1	64	-9.1	2	6	248	0.00	30.202 
02:35	0.1	0.1	0.1	64	-9.1	3	7	270	0.00	30.203 
02:40	0.1	0.1	0.1	64	-9.1	2	7	270	0.00	30.204 
02:45	0.0	0.0	0.0	64	-9.2	2	6	270	0.00	30.206 
02:50	0.0	0.0	0.0	65	-8.9	1	5	270	0.00	30.205 
02:55	-0.2	-0.2	-0.2	65	-9.1	2	10	270	0.00	30.206 
03:00	-0.2	-0.2	-0.2	65	-9.1	2	5	270	0.00	30.203 
03:05	-0.2	-0.2	-0.2	65	-9.1	2	6	270	0.00	30.206 
03:10	-0.4	-0.4	-0.4	65	-9.3	1	7	248	0.00	30.211 
03:15	-0.4	-0.4	-0.4	65	-9.3	2	7	270	0.00	30.210 
03:20	-0.4	-0.4	-0.4	65	-9.3	2	6	270	0.00	30.211 
03:25	-0.4	-0.4	-0.4	65	-9.3	1	4	270	0.00	30.213 
03:30	-0.4	-0.4	-0.4	65	-9.3	1	4	270	0.00	30.215 
03:35	-0.4	-0.4	-0.4	65	-9.3	1	4	270	0.00	30.213 
03:40	-0.4	-0.4	-0.4	65	-9.3	1	4	270	0.00	30.217 
03:45	-0.4	-0.4	-0.4	65	-9.3	2	10	270	0.00	30.215 
03:50	-0.4	-0.4	-0.4	65	-9.3	1	3	270	0.00	30.214 
03:55	-0.6	-0.6	-0.6	65	-9.5	2	6	248	0.00	30.214 
04:00	-0.6	-0.6	-0.6	65	-9.5	1	6	248	0.00	30.217 
04:05	-0.8	-0.8	-0.8	65	-9.7	1	9	270	0.00	30.224 
04:10	-0.8	-0.8	-0.8	65	-9.7	1	7	270	0.00	30.224 
04:15	-0.8	-0.8	-0.8	65	-9.7	2	10	270	0.00	30.225 
04:20	-0.8	-0.8	-0.8	65	-9.7	2	4	270	0.00	30.224 
04:25	-0.8	-0.8	-0.8	65	-9.7	3	7	270	0.00	30.224 
04:30	-0.8	-0.8	-0.8	65	-9.7	3	11	270	0.00	30.225 
04:35	-0.8	-0.8	-0.8	65	-9.7	3	10	270	0.00	30.224 
04:40	-0.8	-0.8	-0.8	65	-9.7	2	11	270	0.00	30.225 
04:45	-0.6	-0.6	-0.6	66	-9.2	2	6	270	0.00	30.226 
04:50	-0.6	-0.6	-0.6	65	-9.5	3	9	270	0.00	30.224 
04:55	-0.6	-0.6	-0.6	65	-9.5	1	4	270	0.00	30.223 
05:00	-0.8	-0.8	-0.8	65	-9.7	2	9	270	0.00	30.226 
05:05	-0.8	-0.8	-0.8	65	-9.7	1	6	270	0.00	30.229 
05:10	-0.8	-0.8	-0.8	65	-9.7	2	6	270	0.00	30.229 
05:15	-1.0	-1.0	-1.0	65	-9.9	2	7	270	0.00	30.229 
05:20	-1.0	-1.0	-1.0	65	-9.9	2	5	270	0.00	30.232 
05:25	-1.0	-1.0	-1.0	65	-9.9	1	5	270	0.00	30.230 
05:30	-1.0	-1.0	-1.0	65	-9.9	2	7	248	0.00	30.240 
05:35	-1.2	-1.2	-1.2	65	-10.1	1	4	270	0.00	30.243 
05:40	-1.2	-1.2	-1.2	65	-10.1	1	4	270	0.00	30.244 
05:45	-1.2	-1.2	-1.2	66	-9.8	2	7	270	0.00	30.245 
05:50	-1.2	-1.2	-1.2	66	-9.8	1	3	248	0.00	30.249 
05:55	-1.2	-1.2	-1.2	66	-9.8	1	4	248	0.00	30.254 
06:00	-1.2	-1.2	-1.2	66	-9.8	1	5	270	0.00	30.255 
06:05	-1.2	-1.2	-1.2	66	-9.8	1	4	270	0.00	30.256 
06:10	-1.2	-1.2	-1.2	66	-9.8	1	4	248	0.00	30.260 
06:15	-1.4	-1.4	-1.4	66	-10.0	1	3	248	0.00	30.259 
06:20	-1.4	-1.4	-1.4	67	-9.7	1	4	248	0.00	30.259 
06:25	-1.4	-1.4	-1.4	67	-9.7	1	4	248	0.00	30.262 
06:30	-1.4	-1.4	-1.4	67	-9.7	1	5	248	0.00	30.264 
06:35	-1.4	-1.4	-1.4	67	-9.7	2	6	248	0.00	30.262 
06:40	-1.4	-1.4	-1.4	67	-9.7	2	6	248	0.00	30.263 
06:45	-1.4	-1.4	-1.4	67	-9.7	2	5	248	0.00	30.266 
06:50	-1.4	-1.4	-1.4	67	-9.7	2	6	270	0.00	30.269 
06:55	-1.6	-1.6	-1.6	67	-9.8	1	5	248	0.00	30.276 
07:00	-1.6	-1.6	-1.6	67	-9.8	1	5	248	0.00	30.276 
07:05	-1.6	-1.6	-1.6	67	-9.8	1	4	248	0.00	30.278 
07:10	-1.6	-1.6	-1.6	68	-9.5	1	4	270	0.00	30.281 
07:15	-1.6	-1.6	-1.6	68	-9.5	1	5	248	0.00	30.283 
07:20	-1.6	-1.6	-1.6	68	-9.5	1	5	248	0.00	30.285 
07:25	-1.6	-1.6	-1.6	68	-9.5	1	5	270	0.00	30.294 
07:30	-1.6	-1.6	-1.6	68	-9.5	0	3	248	0.00	30.296 
07:35	-1.6	-1.6	-1.6	68	-9.5	1	4	248	0.00	30.298 
07:40	-1.6	-1.6	-1.6	68	-9.5	1	3	270	0.00	30.299 
07:45	-1.6	-1.6	-1.6	68	-9.5	1	4	270	0.00	30.300 
07:50	-1.6	-1.6	-1.6	68	-9.5	2	7	270	0.00	30.301 
07:55	-1.6	-1.6	-1.6	67	-9.8	2	6	248	0.00	30.307 
08:00	-1.8	-1.8	-1.8	67	-10.0	1	4	248	0.00	30.307 
08:05	-1.8	-1.8	-1.8	67	-10.0	1	3	248	0.00	30.310 
08:10	-1.8	-1.8	-1.8	67	-10.0	1	5	248	0.00	30.311 
08:15	-1.8	-1.8	-1.8	67	-10.0	1	3	248	0.00	30.311 
08:20	-1.8	-1.8	-1.8	67	-10.0	1	3	248	0.00	30.311 
08:25	-1.8	-1.8	-1.8	67	-10.0	1	3	248	0.00	30.311 
08:30	-1.8	-1.8	-1.8	67	-10.0	1	5	248	0.00	30.309 
08:35	-1.4	-1.4	-1.4	67	-9.7	1	6	248	0.00	30.311 
08:40	-1.0	-1.0	-1.0	66	-9.6	2	5	248	0.00	30.314 
08:45	-0.4	-0.4	-0.4	65	-9.3	2	6	270	0.00	30.315 
08:50	0.0	0.0	0.0	65	-8.9	1	6	248	0.00	30.312 
08:55	0.3	0.3	0.3	64	-9.0	1	5	248	0.00	30.314 
09:00	0.5	0.5	0.5	63	-9.1	2	6	248	0.00	30.315 
09:05	0.9	0.9	0.9	63	-8.7	2	6	248	0.00	30.313 
09:10	1.1	1.1	1.1	62	-8.8	2	6	270	0.00	30.318 
09:15	1.5	1.5	1.5	62	-8.5	2	6	248	0.00	30.319 
09:20	1.7	1.7	1.7	62	-8.3	2	7	270	0.00	30.321 
09:25	2.0	2.0	2.0	62	-8.0	2	6	270	0.00	30.326 
09:30	2.4	2.4	2.4	62	-7.6	2	9	248	0.00	30.326 
09:35	2.4	-6.1	2.4	61	-7.9	4	9	248	0.00	30.323 
09:40	2.8	2.8	2.8	61	-7.6	2	6	248	0.00	30.324 
09:45	3.0	3.0	3.0	60	-7.7	2	5	248	0.00	30.324 
09:50	3.4	3.4	3.4	60	-7.3	2	9	270	0.00	30.323 
09:55	3.4	3.4	3.4	60	-7.3	3	9	248	0.00	30.324 
10:00	3.5	3.5	3.5	59	-7.6	2	6	270	0.00	30.323 
10:05	3.9	3.9	3.9	59	-7.2	2	5	248	0.00	30.323 
10:10	4.3	4.3	4.3	59	-6.8	1	5	270	0.00	30.324 
10:15	4.5	4.5	4.5	58	-7.0	2	4	270	0.00	30.327 
10:20	4.8	4.8	4.8	58	-6.7	2	4	270	0.00	30.329 
10:25	5.0	5.0	5.0	58	-6.5	2	4	270	0.00	30.330 
10:30	5.2	5.2	5.2	58	-6.3	2	5	270	0.00	30.330 
10:35	5.2	-2.9	5.2	58	-6.3	4	9	248	0.00	30.333 
10:40	5.4	5.4	5.4	58	-6.1	2	7	248	0.00	30.335 
10:45	5.8	5.8	5.8	58	-5.8	2	6	270	0.00	30.332 
10:50	6.0	6.0	6.0	58	-5.6	2	5	248	0.00	30.334 
10:55	6.1	6.1	6.1	59	-5.1	2	4	270	0.00	30.332 
11:00	6.1	6.1	6.1	58	-5.5	2	6	270	0.00	30.333 
11:05	6.5	6.5	6.5	58	-5.1	2	4	270	0.00	30.333 
11:10	6.9	6.9	6.9	58	-4.7	2	4	270	0.00	30.334 
11:15	6.9	6.9	6.9	57	-5.1	3	5	248	0.00	30.336 
11:20	7.0	7.0	7.0	58	-4.6	2	7	248	0.00	30.337 
11:25	6.9	-0.9	6.9	58	-4.7	4	11	270	0.00	30.337 
11:30	7.0	7.0	7.0	59	-4.3	3	6	248	0.00	30.337 
11:35	7.6	7.6	7.6	60	-3.3	2	8	248	0.00	30.335 
11:40	7.9	7.9	7.9	59	-3.4	2	5	270	0.00	30.333 
11:45	8.1	8.1	8.1	59	-3.2	2	7	270	0.00	30.331 
11:50	8.4	8.4	8.4	62	-1.9	3	7	248	0.00	30.331 
11:55	8.6	8.6	8.6	59	-2.8	2	6	248	0.00	30.333 
12:00	9.2	9.2	9.2	59	-2.2	1	4	248	0.00	30.332 
12:05	9.2	9.2	9.2	58	-2.5	3	9	248	0.00	30.332 
12:10	9.3	9.3	9.3	58	-2.4	3	9	248	0.00	30.325 
12:15	9.9	9.9	9.9	61	-0.8	1	5	248	0.00	30.321 
12:20	10.4	10.4	10.4	59	-1.1	1	5	248	0.00	30.321 
12:25	10.5	10.5	10.5	57	-1.7	1	6	248	0.00	30.318 
12:30	10.9	10.9	10.9	59	-0.6	2	5	270	0.00	30.317 
12:35	11.2	11.2	11.2	60	0.1	2	10	270	0.00	30.317 
12:40	11.1	11.1	11.1	59	-0.4	3	6	270	0.00	30.317 
12:45	10.9	10.9	10.9	59	-0.6	2	6	270	0.00	30.318 
12:50	11.1	11.1	11.1	60	-0.0	3	9	270	0.00	30.318 
12:55	11.2	11.2	11.2	60	0.1	2	5	270	0.00	30.317 
13:00	11.4	11.4	11.4	59	-0.1	1	3	270	0.00	30.314 
13:05	11.6	11.6	11.6	60	0.4	1	3	270	0.00	30.315 
13:10	11.7	11.7	11.7	59	0.2	2	7	270	0.00	30.312 
13:15	11.6	11.6	11.6	59	0.1	2	7	270	0.00	30.303 
13:20	11.9	11.9	11.9	60	0.7	1	4	270	0.00	30.301 
13:25	12.1	12.1	12.1	59	0.6	1	3	248	0.00	30.301 
13:30	12.3	12.3	12.3	59	0.7	2	6	270	0.00	30.294 
13:35	12.4	12.4	12.4	59	0.8	2	9	270	0.00	30.291 
13:40	12.6	12.6	12.6	59	1.0	2	4	270	0.00	30.289 
13:45	12.6	12.6	12.6	59	1.0	2	9	270	0.00	30.286 
13:50	12.9	12.9	12.9	59	1.3	2	5	270	0.00	30.285 
13:55	13.1	13.1	13.1	59	1.5	2	7	270	0.00	30.284 
14:00	13.3	13.3	13.3	60	2.0	2	6	270	0.00	30.283 
14:05	13.3	13.3	13.3	60	2.0	3	7	270	0.00	30.282 
14:10	13.5	13.5	13.5	59	1.9	2	5	270	0.00	30.276 
14:15	13.6	13.6	13.6	59	2.0	2	5	270	0.00	30.272 
14:20	14.0	14.0	14.0	59	2.3	2	6	248	0.00	30.271 
14:25	14.0	14.0	14.0	60	2.7	2	9	270	0.00	30.269 
14:30	14.1	14.1	14.1	58	2.1	2	6	270	0.00	30.267 
14:35	14.1	14.1	14.1	58	2.1	2	4	270	0.00	30.265 
14:40	14.1	14.1	14.1	59	2.4	3	7	270	0.00	30.260 
14:45	14.0	14.0	14.0	59	2.3	3	11	270	0.00	30.253 
14:50	14.0	14.0	14.0	60	2.7	2	6	270	0.00	30.253 
14:55	14.0	14.0	14.0	59	2.3	3	12	270	0.00	30.252 
15:00	14.0	14.0	14.0	59	2.3	3	13	270	0.00	30.251 
15:05	14.1	14.1	14.1	60	2.8	2	9	270	0.00	30.252 
15:10	14.3	14.3	14.3	59	2.6	2	4	270	0.00	30.249 
15:15	14.4	14.4	14.4	59	2.7	2	5	270	0.00	30.244 
15:20	14.6	14.6	14.6	60	3.3	1	4	270	0.00	30.239 
15:25	15.1	15.1	15.1	58	3.0	3	6	270	0.00	30.238 
15:30	15.4	15.4	15.4	57	2.9	2	9	248	0.00	30.237 
15:35	15.6	15.6	15.6	56	2.7	3	10	270	0.00	30.237 
15:40	15.2	15.2	15.2	56	2.4	3	8	270	0.00	30.236 
15:45	14.9	8.3	14.9	55	1.7	4	9	270	0.00	30.235 
15:50	14.4	14.4	14.4	54	0.8	3	7	270	0.00	30.235 
15:55	14.3	7.6	14.3	54	0.7	4	11	270	0.00	30.237 
16:00	14.3	7.6	14.3	53	0.3	4	11	270	0.00	30.235 
16:05	14.3	7.6	14.3	51	-0.5	4	14	270	0.00	30.237 
16:10	14.0	5.9	14.0	50	-1.2	5	14	270	0.00	30.237 
16:15	13.6	6.8	13.6	51	-1.1	4	11	270	0.00	30.237 
16:20	13.5	13.5	13.5	52	-0.8	3	9	270	0.00	30.237 
16:25	13.5	13.5	13.5	52	-0.8	2	7	270	0.00	30.235 
16:30	13.1	13.1	13.1	50	-2.0	3	9	270	0.00	30.229 
16:35	12.9	12.9	12.9	51	-1.8	3	5	270	0.00	30.229 
16:40	12.8	12.8	12.8	53	-1.1	3	10	270	0.00	30.229 
16:45	12.6	12.6	12.6	52	-1.6	2	6	270	0.00	30.228 
16:50	12.1	3.7	12.1	51	-2.5	5	14	270	0.00	30.229 
16:55	11.6	4.5	11.6	53	-2.2	4	16	270	0.00	30.226 
17:00	11.2	11.2	11.2	52	-3.0	2	13	270	0.00	30.224 
17:05	11.2	11.2	11.2	53	-2.6	1	6	248	0.00	30.222 
17:10	11.2	11.2	11.2	51	-3.4	3	11	270	0.00	30.221 
17:15	10.9	10.9	10.9	51	-3.6	2	7	270	0.00	30.221 
17:20	10.7	10.7	10.7	51	-3.8	2	5	270	0.00	30.219 
17:25	10.4	10.4	10.4	51	-4.1	3	7	270	0.00	30.220 
17:30	10.2	10.2	10.2	51	-4.3	2	6	270	0.00	30.222 
17:35	10.0	10.0	10.0	51	-4.5	2	5	248	0.00	30.221 
17:40	9.7	2.3	9.7	51	-4.8	4	12	270	0.00	30.224 
17:45	9.3	9.3	9.3	52	-4.7	2	7	248	0.00	30.225 
17:50	9.2	9.2	9.2	53	-4.4	1	6	248	0.00	30.225 
17:55	8.6	8.6	8.6	52	-5.4	2	8	270	0.00	30.225 
18:00	8.3	8.3	8.3	53	-5.3	3	8	270	0.00	30.228 
18:05	7.9	7.9	7.9	54	-5.3	2	10	270	0.00	30.227 
18:10	7.7	-1.5	7.7	53	-5.8	5	12	248	0.00	30.227 
18:15	7.4	-1.8	7.4	53	-6.1	5	14	270	0.00	30.228 
18:20	7.2	7.2	7.2	54	-5.9	2	9	270	0.00	30.229 
18:25	7.0	7.0	7.0	54	-6.1	2	10	270	0.00	30.230 
18:30	6.9	6.9	6.9	55	-5.8	2	6	270	0.00	30.231 
18:35	6.9	6.9	6.9	55	-5.8	2	10	270	0.00	30.231 
18:40	6.5	6.5	6.5	55	-6.2	3	7	270	0.00	30.232 
18:45	6.3	-1.6	6.3	55	-6.4	4	12	270	0.00	30.233 
18:50	6.3	6.3	6.3	56	-6.0	3	7	270	0.00	30.233 
18:55	6.1	6.1	6.1	56	-6.2	2	6	248	0.00	30.233 
19:00	6.0	6.0	6.0	57	-5.9	1	9	270	0.00	30.232 
19:05	5.8	5.8	5.8	57	-6.1	2	11	270	0.00	30.232 
19:10	5.8	5.8	5.8	57	-6.1	1	5	270	0.00	30.233 
19:15	5.6	5.6	5.6	58	-5.9	2	9	270	0.00	30.234 
19:20	5.4	5.4	5.4	58	-6.1	1	6	270	0.00	30.237 
19:25	5.4	5.4	5.4	58	-6.1	2	9	248	0.00	30.235 
19:30	5.2	5.2	5.2	58	-6.3	2	9	270	0.00	30.233 
19:35	5.0	5.0	5.0	59	-6.2	3	8	270	0.00	30.233 
19:40	5.0	5.0	5.0	59	-6.2	2	7	270	0.00	30.233 
19:45	4.8	4.8	4.8	59	-6.3	2	10	270	0.00	30.233 
19:50	4.8	4.8	4.8	60	-6.0	2	6	248	0.00	30.234 
19:55	4.7	4.7	4.7	60	-6.1	2	7	270	0.00	30.234 
20:00	4.5	4.5	4.5	60	-6.3	3	10	270	0.00	30.233 
20:05	4.5	4.5	4.5	60	-6.3	3	15	248	0.00	30.231 
20:10	4.3	4.3	4.3	61	-6.1	3	10	248	0.00	30.233 
20:15	4.3	4.3	4.3	61	-6.1	3	11	270	0.00	30.232 
20:20	4.3	4.3	4.3	61	-6.1	3	10	270	0.00	30.231 
20:25	4.1	4.1	4.1	61	-6.3	3	14	270	0.00	30.233 
20:30	4.1	4.1	4.1	62	-6.0	3	9	270	0.00	30.232 
20:35	4.1	4.1	4.1	62	-6.0	3	9	270	0.00	30.231 
20:40	4.1	4.1	4.1	62	-6.0	2	7	270	0.00	30.231 
20:45	3.9	3.9	3.9	62	-6.2	3	10	270	0.00	30.231 
20:50	3.9	3.9	3.9	62	-6.2	3	11	270	0.00	30.233 
20:55	3.7	3.7	3.7	63	-6.0	3	10	270	0.00	30.232 
21:00	3.7	3.7	3.7	63	-6.0	2	7	270	0.00	30.231 
21:05	3.5	3.5	3.5	63	-6.2	2	6	270	0.00	30.227 
21:10	3.5	3.5	3.5	63	-6.2	3	11	270	0.00	30.226 
21:15	3.5	3.5	3.5	64	-5.9	2	6	270	0.00	30.226 
21:20	3.4	3.4	3.4	64	-6.0	2	7	270	0.00	30.230 
21:25	3.4	-5.0	3.4	64	-6.0	4	13	270	0.00	30.229 
21:30	3.4	3.4	3.4	64	-6.0	2	8	270	0.00	30.229 
21:35	3.2	3.2	3.2	65	-5.9	2	6	270	0.00	30.229 
21:40	3.2	3.2	3.2	65	-5.9	1	6	270	0.00	30.228 
21:45	3.0	3.0	3.0	65	-6.1	2	8	270	0.00	30.229 
21:50	3.0	3.0	3.0	65	-6.1	2	7	248	0.00	30.229 
21:55	3.0	3.0	3.0	65	-6.1	1	6	248	0.00	30.230 
22:00	2.8	2.8	2.8	65	-6.3	2	12	248	0.00	30.231 
22:05	2.8	2.8	2.8	65	-6.3	2	6	248	0.00	30.230 
22:10	2.8	2.8	2.8	65	-6.3	2	7	270	0.00	30.233 
22:15	2.8	2.8	2.8	66	-5.9	2	5	270	0.00	30.232 
22:20	2.6	2.6	2.6	66	-6.1	1	5	270	0.00	30.231 
22:25	2.6	2.6	2.6	66	-6.1	3	11	270	0.00	30.233 
22:30	2.6	2.6	2.6	66	-6.1	2	7	270	0.00	30.231 
22:35	2.6	2.6	2.6	66	-6.1	2	7	248	0.00	30.230 
22:40	2.6	2.6	2.6	66	-6.1	3	9	270	0.00	30.229 
22:45	2.6	2.6	2.6	66	-6.1	3	7	270	0.00	30.226 
22:50	2.6	2.6	2.6	66	-6.1	2	5	248	0.00	30.226 
22:55	2.6	2.6	2.6	66	-6.1	3	9	248	0.00	30.221 
23:00	2.6	2.6	2.6	66	-6.1	3	10	248	0.00	30.222 
23:05	2.6	2.6	2.6	66	-6.1	2	11	248	0.00	30.219 
23:10	2.4	2.4	2.4	66	-6.3	3	9	248	0.00	30.216 
23:15	2.4	2.4	2.4	66	-6.3	2	9	270	0.00	30.222 
23:20	2.4	2.4	2.4	66	-6.3	2	9	270	0.00	30.223 
23:25	2.2	2.2	2.2	66	-6.5	2	6	270	0.00	30.225 
23:30	2.4	2.4	2.4	66	-6.3	2	7	270	0.00	30.228 
23:35	2.2	2.2	2.2	66	-6.5	2	6	270	0.00	30.234 
23:40	2.2	2.2	2.2	66	-6.5	1	4	270	0.00	30.240 
23:45	2.2	2.2	2.2	66	-6.5	2	7	270	0.00	30.241 
23:50	2.2	2.2	2.2	66	-6.5	2	7	270	0.00	30.246 
23:55	2.2	2.2	2.2	66	-6.5	1	5	270	0.00	30.249 

CoCoRaHS
IN-AL-39
A2 Web Hosting
Creative Commons License
GoDaddy
Look for:

loaded 2017-10-16 18:19:45 • last modified 2010-11-18 10:43:29
Privacy PolicyDisclaimer
• wx.awcolley.com is powered by PmWiki v.2002016 •
• all content (unless otherwise noted) © 2017 A W Colley